createdAt,value
2023-04-15T00:01:13.492Z,1.02
2023-04-15T00:03:41.478Z,0.45
2023-04-15T00:06:09.869Z,0.30
2023-04-15T00:08:37.142Z,0.50
2023-04-15T00:11:06.119Z,0.60
2023-04-15T00:13:34.951Z,0.38
2023-04-15T00:16:02.469Z,0.22
2023-04-15T00:18:30.096Z,1.38
2023-04-15T00:20:57.516Z,0.32
2023-04-15T00:23:25.031Z,0.50
2023-04-15T00:25:52.390Z,0.43
2023-04-15T00:28:19.926Z,0.30
2023-04-15T00:30:49.227Z,0.40
2023-04-15T00:33:16.752Z,0.08
2023-04-15T00:35:44.174Z,0.40
2023-04-15T00:38:11.857Z,0.17
2023-04-15T00:40:39.376Z,0.20
2023-04-15T00:43:07.219Z,0.30
2023-04-15T00:45:34.619Z,0.03
2023-04-15T00:48:04.656Z,0.40
2023-04-15T00:50:32.204Z,0.17
2023-04-15T00:52:59.478Z,0.20
2023-04-15T00:55:27.005Z,0.40
2023-04-15T00:57:54.879Z,0.10
2023-04-15T01:00:22.909Z,0.50
2023-04-15T01:02:51.052Z,0.47
2023-04-15T01:05:20.608Z,0.65
2023-04-15T01:07:48.779Z,0.20
2023-04-15T01:10:16.410Z,0.30
2023-04-15T01:12:44.748Z,0.50
2023-04-15T01:15:12.246Z,0.30
2023-04-15T01:17:40.058Z,0.40
2023-04-15T01:20:12.457Z,0.17
2023-04-15T01:22:41.748Z,0.60
2023-04-15T01:25:13.233Z,0.43
2023-04-15T01:27:45.706Z,0.22
2023-04-15T01:30:13.276Z,0.22
2023-04-15T01:32:40.957Z,0.40
2023-04-15T01:35:27.255Z,0.00
2023-04-15T01:37:59.712Z,0.30
2023-04-15T01:40:26.959Z,0.43
2023-04-15T01:42:56.837Z,0.40
2023-04-15T01:45:25.935Z,0.32
2023-04-15T01:47:54.455Z,0.43
2023-04-15T01:50:23.065Z,0.40
2023-04-15T01:52:51.585Z,0.38
2023-04-15T01:55:20.291Z,0.75
2023-04-15T01:57:48.788Z,0.40
2023-04-15T02:00:18.750Z,0.43
2023-04-15T02:02:47.299Z,0.88
2023-04-15T02:05:16.319Z,0.40
2023-04-15T02:07:49.555Z,0.15
2023-04-15T02:10:18.560Z,0.40
2023-04-15T02:12:47.392Z,0.30
2023-04-15T02:15:15.961Z,0.38
2023-04-15T02:17:51.083Z,0.10
2023-04-15T02:20:21.592Z,0.20
2023-04-15T02:22:50.187Z,0.17
2023-04-15T02:25:19.167Z,0.35
2023-04-15T02:27:47.772Z,0.25
2023-04-15T02:30:18.852Z,0.52
2023-04-15T02:32:48.776Z,0.50
2023-04-15T02:35:19.975Z,0.35
2023-04-15T02:37:48.672Z,0.30
2023-04-15T02:40:19.562Z,0.38
2023-04-15T02:42:48.193Z,0.70
2023-04-15T02:45:20.494Z,0.25
2023-04-15T02:47:50.595Z,0.70
2023-04-15T02:50:19.392Z,0.55
2023-04-15T02:52:47.876Z,0.38
2023-04-15T02:55:18.177Z,0.25
2023-04-15T02:57:46.746Z,0.25
2023-04-15T03:00:16.380Z,0.28
2023-04-15T03:02:47.940Z,1.02
2023-04-15T03:05:18.046Z,0.30
2023-04-15T03:07:52.025Z,0.90
2023-04-15T03:10:21.689Z,0.75
2023-04-15T03:12:50.197Z,0.80
2023-04-15T03:15:21.444Z,0.68
2023-04-15T03:17:53.297Z,0.57
2023-04-15T03:20:23.648Z,0.70
2023-04-15T03:22:52.471Z,0.60
2023-04-15T03:25:22.975Z,0.68
2023-04-15T03:27:51.561Z,0.13
2023-04-15T03:30:20.149Z,0.30
2023-04-15T03:32:49.448Z,0.52
2023-04-15T03:35:18.158Z,0.32
2023-04-15T03:37:49.321Z,0.35
2023-04-15T03:40:17.881Z,0.10
2023-04-15T03:42:46.625Z,0.32
2023-04-15T03:45:15.312Z,0.38
2023-04-15T03:47:44.115Z,0.40
2023-04-15T03:50:12.773Z,0.50
2023-04-15T03:52:41.239Z,0.75
2023-04-15T03:55:11.405Z,0.50
2023-04-15T03:57:40.100Z,0.60
2023-04-15T04:00:13.098Z,0.50
2023-04-15T04:05:10.850Z,0.70
2023-04-15T04:07:39.390Z,1.00
2023-04-15T04:10:08.780Z,1.10
2023-04-15T04:12:38.699Z,0.10
2023-04-15T04:15:08.468Z,0.75
2023-04-15T04:17:37.046Z,0.30
2023-04-15T04:20:06.876Z,0.55
2023-04-15T04:22:38.284Z,0.65
2023-04-15T04:25:08.752Z,0.90
2023-04-15T04:27:38.958Z,0.38
2023-04-15T04:30:09.182Z,0.60
2023-04-15T04:32:37.747Z,0.35
2023-04-15T04:35:07.306Z,0.30
2023-04-15T04:37:36.336Z,0.30
2023-04-15T04:40:05.976Z,0.17
2023-04-15T04:42:34.744Z,1.20
2023-04-15T04:45:05.314Z,0.38
2023-04-15T04:47:33.996Z,0.30
2023-04-15T04:50:02.813Z,0.73
2023-04-15T04:52:31.618Z,0.52
2023-04-15T04:55:00.050Z,0.45
2023-04-15T04:57:28.642Z,0.73
2023-04-15T04:59:57.722Z,0.63
2023-04-15T05:02:27.894Z,0.88
2023-04-15T05:04:56.950Z,0.73
2023-04-15T05:07:25.830Z,0.82
2023-04-15T05:09:54.217Z,0.80
2023-04-15T05:12:22.665Z,0.40
2023-04-15T05:14:51.528Z,0.88
2023-04-15T05:17:20.156Z,0.57
2023-04-15T05:19:50.304Z,0.80
2023-04-15T05:22:18.772Z,0.50
2023-04-15T05:24:47.254Z,0.40
2023-04-15T05:27:15.994Z,0.50
2023-04-15T05:29:44.744Z,0.55
2023-04-15T05:32:13.192Z,0.95
2023-04-15T05:34:41.976Z,0.20
2023-04-15T05:37:12.139Z,0.80
2023-04-15T05:39:40.652Z,1.05
2023-04-15T05:42:09.280Z,0.35
2023-04-15T05:44:37.744Z,0.45
2023-04-15T05:47:07.306Z,0.10
2023-04-15T05:49:36.287Z,0.40
2023-04-15T05:52:05.142Z,0.93
2023-04-15T05:54:35.155Z,0.70
2023-04-15T05:57:04.140Z,0.77
2023-04-15T05:59:32.869Z,0.50
2023-04-15T06:02:01.432Z,0.75
2023-04-15T06:04:30.560Z,0.30
2023-04-15T06:06:59.183Z,0.40
2023-04-15T06:09:29.008Z,0.73
2023-04-15T06:11:59.417Z,0.45
2023-04-15T06:14:27.872Z,0.40
2023-04-15T06:16:56.535Z,0.45
2023-04-15T06:19:25.718Z,0.57
2023-04-15T06:21:54.450Z,0.63
2023-04-15T06:24:23.130Z,0.68
2023-04-15T06:26:51.642Z,1.08
2023-04-15T06:29:21.542Z,1.08
2023-04-15T06:31:50.611Z,0.82
2023-04-15T06:34:19.222Z,0.47
2023-04-15T06:36:47.768Z,0.85
2023-04-15T06:39:16.355Z,0.40
2023-04-15T06:41:45.219Z,1.17
2023-04-15T06:44:14.150Z,0.50
2023-04-15T06:46:44.017Z,0.63
2023-04-15T06:49:12.581Z,0.43
2023-04-15T06:51:42.725Z,0.80
2023-04-15T06:54:11.288Z,0.17
2023-04-15T06:56:39.930Z,0.50
2023-04-15T06:59:08.787Z,0.85
2023-04-15T07:01:37.392Z,0.32
2023-04-15T07:04:07.762Z,0.40
2023-04-15T07:06:36.468Z,0.70
2023-04-15T07:09:05.837Z,1.33
2023-04-15T07:11:34.485Z,0.63
2023-04-15T07:14:03.009Z,0.75
2023-04-15T07:16:31.540Z,0.75
2023-04-15T07:19:00.656Z,1.08
2023-04-15T07:21:30.741Z,0.30
2023-04-15T07:23:59.280Z,0.50
2023-04-15T07:26:28.083Z,0.40
2023-04-15T07:28:56.880Z,1.83
2023-04-15T07:31:25.797Z,0.35
2023-04-15T07:33:54.280Z,1.10
2023-04-15T07:36:22.939Z,0.55
2023-04-15T07:38:52.879Z,0.65
2023-04-15T07:41:21.916Z,0.60
2023-04-15T07:43:50.789Z,0.70
2023-04-15T07:46:19.364Z,0.73
2023-04-15T07:48:48.259Z,0.57
2023-04-15T07:51:17.902Z,1.15
2023-04-15T07:53:46.686Z,0.63
2023-04-15T07:56:16.771Z,0.68
2023-04-15T07:58:45.298Z,0.30
2023-04-15T08:01:13.990Z,0.57
2023-04-15T08:03:43.258Z,0.60
2023-04-15T08:06:12.526Z,0.77
2023-04-15T08:08:41.740Z,0.45
2023-04-15T08:11:10.254Z,0.68
2023-04-15T08:13:40.140Z,1.00
2023-04-15T08:16:19.080Z,0.80
2023-04-15T08:18:47.828Z,0.70
2023-04-15T08:21:16.927Z,0.93
2023-04-15T08:23:46.625Z,1.02
2023-04-15T08:26:15.270Z,0.50
2023-04-15T08:28:46.126Z,0.50
2023-04-15T08:31:16.417Z,1.40
2023-04-15T08:33:45.966Z,0.70
2023-04-15T08:36:15.034Z,0.40
2023-04-15T08:38:45.079Z,0.50
2023-04-15T08:41:26.291Z,0.77
2023-04-15T08:43:59.130Z,0.57
2023-04-15T08:46:28.352Z,0.88
2023-04-15T08:48:58.471Z,0.57
2023-04-15T08:51:27.367Z,0.60
2023-04-15T08:53:55.883Z,0.70
2023-04-15T08:56:27.009Z,0.70
2023-04-15T08:58:58.020Z,1.10
2023-04-15T09:01:27.014Z,0.73
2023-04-15T09:03:57.311Z,0.57
2023-04-15T09:06:26.330Z,0.77
2023-04-15T09:08:55.125Z,0.70
2023-04-15T09:11:24.868Z,0.82
2023-04-15T09:13:53.454Z,0.38
2023-04-15T09:16:23.230Z,0.95
2023-04-15T09:18:52.725Z,0.95
2023-04-15T09:21:22.348Z,0.47
2023-04-15T09:23:58.315Z,0.50
2023-04-15T09:26:34.771Z,1.20
2023-04-15T09:29:06.087Z,0.75
2023-04-15T09:31:36.919Z,0.80
2023-04-15T09:34:06.333Z,1.48
2023-04-15T09:36:54.753Z,0.80
2023-04-15T09:39:23.618Z,0.98
2023-04-15T09:42:06.861Z,1.50
2023-04-15T09:44:35.891Z,0.57
2023-04-15T09:47:06.491Z,1.05
2023-04-15T09:49:35.169Z,0.95
2023-04-15T09:52:06.115Z,0.98
2023-04-15T09:54:37.687Z,0.90
2023-04-15T09:57:07.410Z,1.10
2023-04-15T09:59:36.304Z,1.30
2023-04-15T10:02:07.725Z,1.08
2023-04-15T10:04:38.674Z,1.27
2023-04-15T10:07:08.789Z,1.13
2023-04-15T10:09:38.975Z,1.50
2023-04-15T10:12:07.561Z,1.70
2023-04-15T10:14:38.815Z,0.77
2023-04-15T10:17:12.445Z,1.00
2023-04-15T10:19:41.903Z,0.70
2023-04-15T10:22:10.911Z,0.95
2023-04-15T10:24:40.549Z,0.80
2023-04-15T10:27:09.724Z,1.10
2023-04-15T10:29:39.103Z,1.33
2023-04-15T10:32:11.057Z,1.33
2023-04-15T10:34:40.766Z,1.30
2023-04-15T10:37:11.787Z,1.90
2023-04-15T10:39:43.342Z,1.17
2023-04-15T10:42:13.277Z,1.70
2023-04-15T10:44:44.034Z,1.38
2023-04-15T10:47:15.609Z,0.70
2023-04-15T10:49:46.283Z,0.60
2023-04-15T10:52:16.702Z,1.20
2023-04-15T10:54:45.416Z,1.17
2023-04-15T10:57:22.957Z,1.30
2023-04-15T11:00:04.836Z,0.55
2023-04-15T11:02:42.615Z,0.75
2023-04-15T11:05:12.156Z,0.60
2023-04-15T11:07:53.114Z,1.15
2023-04-15T11:10:53.379Z,1.08
2023-04-15T11:13:28.628Z,0.70
2023-04-15T11:16:03.122Z,1.30
2023-04-15T11:18:35.141Z,0.40
2023-04-15T11:21:06.507Z,0.65
2023-04-15T11:23:38.482Z,0.52
2023-04-15T11:26:10.067Z,0.73
2023-04-15T11:28:41.603Z,0.93
2023-04-15T11:31:12.961Z,0.77
2023-04-15T11:33:56.842Z,0.85
2023-04-15T11:36:30.492Z,1.20
2023-04-15T11:39:00.368Z,0.90
2023-04-15T11:41:29.975Z,0.50
2023-04-15T11:43:59.373Z,0.70
2023-04-15T11:46:34.125Z,1.08
2023-04-15T11:49:05.529Z,0.63
2023-04-15T11:51:35.966Z,0.82
2023-04-15T11:54:05.034Z,1.00
2023-04-15T11:56:33.805Z,0.77
2023-04-15T11:59:02.616Z,1.35
2023-04-15T12:01:35.560Z,1.10
2023-04-15T12:04:12.427Z,1.30
2023-04-15T12:06:41.769Z,0.85
2023-04-15T12:09:12.750Z,1.17
2023-04-15T12:11:44.499Z,0.63
2023-04-15T12:14:17.874Z,0.98
2023-04-15T12:16:51.712Z,0.40
2023-04-15T12:19:26.387Z,1.02
2023-04-15T12:22:00.797Z,0.90
2023-04-15T12:24:33.366Z,0.52
2023-04-15T12:27:06.642Z,0.45
2023-04-15T12:29:36.864Z,1.00
2023-04-15T12:32:07.679Z,1.05
2023-04-15T12:34:39.471Z,1.30
2023-04-15T12:37:12.738Z,0.65
2023-04-15T12:39:44.137Z,1.10
2023-04-15T12:42:13.340Z,1.30
2023-04-15T12:44:41.742Z,0.65
2023-04-15T12:47:11.375Z,0.93
2023-04-15T12:49:41.884Z,1.42
2023-04-15T12:52:10.906Z,0.73
2023-04-15T12:54:40.483Z,0.93
2023-04-15T12:57:09.356Z,1.65
2023-04-15T12:59:38.011Z,1.05
2023-04-15T13:02:06.697Z,1.27
2023-04-15T13:04:37.114Z,1.38
2023-04-15T13:07:07.281Z,0.98
2023-04-15T13:09:35.724Z,0.65
2023-04-15T13:12:05.854Z,0.90
2023-04-15T13:14:34.375Z,1.15
2023-04-15T13:17:04.748Z,0.82
2023-04-15T13:19:33.452Z,0.68
2023-04-15T13:22:02.273Z,1.35
2023-04-15T13:24:32.448Z,0.50
2023-04-15T13:27:01.162Z,0.90
2023-04-15T13:29:29.670Z,0.68
2023-04-15T13:31:58.568Z,0.85
2023-04-15T13:34:27.351Z,0.80
2023-04-15T13:36:55.933Z,1.13
2023-04-15T13:39:24.774Z,1.48
2023-04-15T13:41:54.906Z,0.88
2023-04-15T13:44:23.505Z,1.27
2023-04-15T13:46:52.399Z,0.75
2023-04-15T13:49:21.104Z,0.90
2023-04-15T13:51:49.519Z,0.68
2023-04-15T13:54:18.239Z,1.20
2023-04-15T13:56:47.334Z,1.48
2023-04-15T13:59:17.330Z,0.90
2023-04-15T14:01:45.725Z,1.50
2023-04-15T14:04:15.036Z,0.82
2023-04-15T14:06:43.905Z,1.05
2023-04-15T14:09:12.605Z,1.25
2023-04-15T14:11:41.184Z,1.42
2023-04-15T14:14:09.893Z,0.88
2023-04-15T14:16:40.105Z,0.80
2023-04-15T14:19:08.980Z,0.88
2023-04-15T14:21:37.687Z,0.75
2023-04-15T14:24:07.149Z,0.63
2023-04-15T14:26:35.905Z,1.20
2023-04-15T14:29:04.732Z,1.05
2023-04-15T14:31:33.707Z,1.45
2023-04-15T14:34:04.205Z,1.25
2023-04-15T14:36:33.904Z,1.70
2023-04-15T14:39:01.673Z,1.38
2023-04-15T14:41:29.285Z,0.98
2023-04-15T14:43:56.870Z,1.30
2023-04-15T14:46:24.409Z,1.05
2023-04-15T14:48:52.436Z,1.08
2023-04-15T14:51:21.260Z,0.80
2023-04-15T14:53:48.745Z,0.95
2023-04-15T14:56:16.328Z,1.02
2023-04-15T14:58:43.726Z,0.88
2023-04-15T15:01:11.205Z,1.38
2023-04-15T15:03:39.408Z,1.00
2023-04-15T15:06:06.966Z,1.05
2023-04-15T15:08:37.129Z,1.40
2023-04-15T15:11:04.905Z,0.77
2023-04-15T15:13:32.391Z,1.10
2023-04-15T15:15:59.804Z,1.20
2023-04-15T15:18:27.211Z,1.35
2023-04-15T15:20:54.657Z,0.90
2023-04-15T15:23:22.148Z,1.38
2023-04-15T15:25:50.889Z,1.25
2023-04-15T15:28:18.194Z,1.27
2023-04-15T15:30:45.712Z,1.23
2023-04-15T15:33:13.061Z,1.27
2023-04-15T15:35:41.271Z,1.50
2023-04-15T15:38:11.509Z,1.13
2023-04-15T15:40:39.234Z,1.20
2023-04-15T15:43:07.924Z,1.20
2023-04-15T15:45:35.935Z,2.05
2023-04-15T15:48:03.765Z,1.45
2023-04-15T15:50:31.198Z,1.50
2023-04-15T15:52:59.008Z,1.73
2023-04-15T15:55:27.361Z,3.08
2023-04-15T15:57:54.623Z,2.15
2023-04-15T16:00:23.417Z,1.90
2023-04-15T16:03:06.109Z,2.72
2023-04-15T16:05:35.192Z,2.10
2023-04-15T16:08:02.611Z,1.52
2023-04-15T16:10:30.103Z,1.70
2023-04-15T16:12:57.389Z,2.45
2023-04-15T16:15:26.797Z,1.50
2023-04-15T16:17:54.387Z,2.08
2023-04-15T16:20:21.931Z,1.55
2023-04-15T16:22:51.181Z,1.55
2023-04-15T16:25:19.057Z,1.58
2023-04-15T16:27:59.397Z,1.80
2023-04-15T16:30:32.261Z,2.40
2023-04-15T16:32:59.959Z,3.00
2023-04-15T16:35:27.473Z,4.07
2023-04-15T16:37:54.870Z,3.67
2023-04-15T16:40:22.227Z,4.82
2023-04-15T16:42:50.372Z,2.88
2023-04-15T16:45:17.773Z,2.78
2023-04-15T16:47:46.827Z,2.80
2023-04-15T16:50:14.758Z,3.08
2023-04-15T16:52:42.217Z,3.22
2023-04-15T16:55:09.570Z,3.72
2023-04-15T16:57:48.783Z,2.90
2023-04-15T17:00:24.450Z,3.22
2023-04-15T17:02:53.387Z,2.42
2023-04-15T17:05:21.168Z,2.80
2023-04-15T17:07:48.710Z,3.45
2023-04-15T17:10:16.351Z,2.35
2023-04-15T17:12:43.898Z,2.55
2023-04-15T17:15:11.584Z,2.83
2023-04-15T17:17:45.890Z,3.53
2023-04-15T17:20:17.465Z,3.42
2023-04-15T17:22:46.790Z,2.08
2023-04-15T17:25:16.357Z,3.72
2023-04-15T17:27:49.723Z,3.85
2023-04-15T17:30:23.651Z,3.72
2023-04-15T17:33:56.508Z,3.75
2023-04-15T17:36:23.141Z,4.07
2023-04-15T17:41:58.205Z,3.47
2023-04-15T17:44:25.540Z,4.18
2023-04-15T17:47:12.773Z,3.78
2023-04-15T17:50:00.145Z,4.60
2023-04-15T17:52:48.885Z,5.35
2023-04-15T17:55:36.774Z,4.85
2023-04-15T17:58:24.400Z,4.95
2023-04-15T18:01:11.638Z,6.22
2023-04-15T18:03:59.138Z,4.30
2023-04-15T18:06:46.485Z,5.85
2023-04-15T18:09:35.293Z,3.90
2023-04-15T18:12:22.668Z,5.32
2023-04-15T18:15:11.804Z,8.40
2023-04-15T18:17:59.254Z,7.25
2023-04-15T18:20:26.611Z,6.47
2023-04-15T18:22:55.790Z,5.88
2023-04-15T18:25:24.565Z,6.05
2023-04-15T18:27:51.966Z,7.20
2023-04-15T18:30:19.655Z,7.05
2023-04-15T18:32:47.106Z,3.60
2023-04-15T18:35:14.390Z,5.85
2023-04-15T18:37:41.694Z,7.68
2023-04-15T18:40:09.993Z,5.25
2023-04-15T18:42:38.656Z,6.22
2023-04-15T18:45:07.193Z,5.68
2023-04-15T18:47:34.608Z,8.15
2023-04-15T18:50:02.056Z,6.57
2023-04-15T18:52:31.562Z,5.88
2023-04-15T18:54:58.887Z,6.35
2023-04-15T18:57:31.343Z,7.20
2023-04-15T19:00:02.201Z,7.15
2023-04-15T19:02:33.926Z,6.63
2023-04-15T19:05:04.297Z,7.80
2023-04-15T19:07:32.868Z,7.03
2023-04-15T19:10:00.306Z,5.10
2023-04-15T19:12:27.930Z,6.88
2023-04-15T19:14:55.284Z,6.90
2023-04-15T19:17:24.094Z,7.63
2023-04-15T19:19:51.612Z,9.30
2023-04-15T19:22:19.264Z,5.88
2023-04-15T19:24:46.645Z,7.00
2023-04-15T19:27:14.187Z,6.60
2023-04-15T19:29:41.661Z,6.50
2023-04-15T19:32:09.063Z,5.93
2023-04-15T19:34:37.724Z,6.95
2023-04-15T19:37:05.102Z,7.47
2023-04-15T19:39:32.421Z,6.55
2023-04-15T19:42:00.209Z,3.75
2023-04-15T19:44:28.083Z,5.57
2023-04-15T19:46:55.669Z,5.38
2023-04-15T19:49:23.074Z,5.25
2023-04-15T19:51:51.909Z,4.90
2023-04-15T19:54:19.338Z,4.75
2023-04-15T19:56:46.996Z,5.70
2023-04-15T19:59:14.446Z,4.78
2023-04-15T20:01:41.980Z,4.25
2023-04-15T20:04:09.763Z,3.58
2023-04-15T20:06:37.280Z,3.65
2023-04-15T20:09:07.053Z,3.65
2023-04-15T20:12:09.326Z,3.85
2023-04-15T20:14:25.161Z,4.75
2023-04-15T20:16:52.633Z,5.38
2023-04-15T20:19:19.966Z,5.55
2023-04-15T20:21:47.310Z,3.85
2023-04-15T20:24:16.310Z,3.78
2023-04-15T20:26:43.656Z,4.68
2023-04-15T20:29:11.170Z,3.45
2023-04-15T20:31:38.777Z,3.80
2023-04-15T20:34:06.462Z,4.70
2023-04-15T20:36:34.123Z,4.07
2023-04-15T20:39:01.739Z,5.00
2023-04-15T20:41:30.656Z,4.40
2023-04-15T20:43:58.024Z,3.35
2023-04-15T20:46:27.345Z,3.15
2023-04-15T20:48:55.845Z,3.47
2023-04-15T20:51:23.125Z,3.30
2023-04-15T20:53:50.551Z,2.70
2023-04-15T20:56:17.930Z,2.00
2023-04-15T20:58:46.815Z,3.72
2023-04-15T21:01:14.633Z,3.50
2023-04-15T21:03:42.791Z,4.10
2023-04-15T21:06:10.176Z,3.13
2023-04-15T21:08:37.479Z,3.50
2023-04-15T21:11:04.771Z,3.60
2023-04-15T21:13:32.161Z,5.55
2023-04-15T21:16:01.130Z,5.63
2023-04-15T21:18:28.516Z,5.65
2023-04-15T21:20:59.385Z,4.60
2023-04-15T21:23:28.693Z,5.82
2023-04-15T21:25:56.668Z,5.07
2023-04-15T21:28:23.921Z,2.53
2023-04-15T21:30:51.247Z,4.47
2023-04-15T21:33:20.572Z,4.80
2023-04-15T21:35:48.227Z,3.45
2023-04-15T21:38:15.510Z,3.30
2023-04-15T21:40:42.912Z,3.17
2023-04-15T21:43:10.506Z,4.10
2023-04-15T21:45:43.098Z,3.72
2023-04-15T21:50:59.658Z,5.57
2023-04-15T21:53:27.280Z,6.30
2023-04-15T21:55:54.986Z,8.27
2023-04-15T21:58:22.494Z,11.45
2023-04-15T22:00:49.931Z,11.30
2023-04-15T22:03:17.574Z,10.63
2023-04-15T22:06:06.271Z,10.98
2023-04-15T22:08:41.661Z,10.93
2023-04-15T22:11:23.136Z,12.07
2023-04-15T22:13:50.623Z,11.88
2023-04-15T22:16:18.207Z,7.20
2023-04-15T22:18:45.639Z,7.07
2023-04-15T22:21:14.585Z,7.97
2023-04-15T22:23:42.004Z,5.82
2023-04-15T22:26:09.249Z,3.25
2023-04-15T22:28:36.923Z,3.03
2023-04-15T22:31:04.236Z,2.75
2023-04-15T22:33:31.812Z,1.58
2023-04-15T22:35:59.221Z,1.98
2023-04-15T22:38:28.190Z,1.83
2023-04-15T22:40:55.828Z,2.80
2023-04-15T22:43:23.175Z,2.63
2023-04-15T22:45:50.834Z,2.10
2023-04-15T22:48:18.530Z,1.20
2023-04-15T22:50:46.270Z,1.85
2023-04-15T22:53:14.953Z,1.52
2023-04-15T22:55:47.086Z,1.83
2023-04-15T22:58:15.263Z,1.60
2023-04-15T23:00:43.018Z,1.92
2023-04-15T23:03:11.062Z,1.70
2023-04-15T23:05:40.144Z,1.67
2023-04-15T23:08:08.223Z,1.13
2023-04-15T23:10:35.708Z,1.90
2023-04-15T23:13:04.445Z,2.60
2023-04-15T23:15:31.929Z,1.67
2023-04-15T23:18:00.591Z,1.55
2023-04-15T23:20:28.080Z,1.35
2023-04-15T23:22:55.499Z,1.00
2023-04-15T23:25:23.217Z,1.55
2023-04-15T23:27:50.827Z,1.90
2023-04-15T23:30:19.809Z,1.73
2023-04-15T23:32:47.238Z,1.55
2023-04-15T23:35:14.569Z,2.72
2023-04-15T23:37:42.106Z,1.38
2023-04-15T23:40:10.658Z,1.48
2023-04-15T23:42:38.077Z,2.08
2023-04-15T23:45:06.129Z,2.42
2023-04-15T23:47:35.265Z,1.90
2023-04-15T23:50:02.663Z,1.35
2023-04-15T23:52:30.877Z,1.08
2023-04-15T23:54:58.372Z,1.40
2023-04-15T23:57:26.084Z,1.52
2023-04-15T23:59:53.823Z,1.65
